createdAt,value
2023-05-18T00:05:02.783Z,3.50
2023-05-18T00:15:27.974Z,3.20
2023-05-18T00:25:52.966Z,3.50
2023-05-18T00:36:22.088Z,2.30
2023-05-18T00:46:50.630Z,2.50
2023-05-18T00:57:19.604Z,2.60
2023-05-18T01:07:45.510Z,2.50
2023-05-18T01:18:35.227Z,2.50
2023-05-18T01:29:03.486Z,2.50
2023-05-18T01:39:29.129Z,3.20
2023-05-18T01:50:00.335Z,3.40
2023-05-18T02:00:28.667Z,3.00
2023-05-18T02:10:54.847Z,3.00
2023-05-18T02:21:20.449Z,3.20
2023-05-18T02:31:46.311Z,2.30
2023-05-18T02:42:13.457Z,2.00
2023-05-18T02:52:40.023Z,1.70
2023-05-18T03:03:06.233Z,2.70
2023-05-18T03:13:33.447Z,2.80
2023-05-18T03:24:01.606Z,2.00
2023-05-18T03:34:27.817Z,1.90
2023-05-18T03:44:54.080Z,1.80
2023-05-18T03:55:24.890Z,1.60
2023-05-18T04:05:52.314Z,2.80
2023-05-18T04:16:40.789Z,1.90
2023-05-18T04:27:09.977Z,4.00
2023-05-18T04:38:07.472Z,4.10
2023-05-18T04:48:33.787Z,4.90
2023-05-18T04:59:03.036Z,5.10
2023-05-18T05:09:59.004Z,3.30
2023-05-18T05:20:27.917Z,3.20
2023-05-18T05:30:54.496Z,2.00
2023-05-18T05:41:40.664Z,2.60
2023-05-18T05:52:05.976Z,1.90
2023-05-18T06:02:34.556Z,2.10
2023-05-18T06:13:01.399Z,1.80
2023-05-18T06:23:48.911Z,1.30
2023-05-18T06:34:43.245Z,1.40
2023-05-18T06:45:09.287Z,1.00
2023-05-18T06:55:58.590Z,0.80
2023-05-18T07:06:25.805Z,1.00
2023-05-18T07:16:50.929Z,1.10
2023-05-18T07:27:16.497Z,1.30
2023-05-18T07:38:02.416Z,1.40
2023-05-18T07:48:27.215Z,1.50
2023-05-18T07:58:55.150Z,1.20
2023-05-18T08:09:20.030Z,1.40
2023-05-18T08:19:44.663Z,1.30
2023-05-18T08:30:21.989Z,0.90
2023-05-18T08:41:43.311Z,0.90
2023-05-18T08:52:09.343Z,1.10
2023-05-18T09:02:38.768Z,0.60
2023-05-18T09:13:10.827Z,1.30
2023-05-18T09:24:36.404Z,1.00
2023-05-18T09:35:23.260Z,1.60
2023-05-18T09:45:50.934Z,1.30
2023-05-18T09:56:18.194Z,0.90
2023-05-18T10:06:52.588Z,0.90
2023-05-18T10:17:22.738Z,1.10
2023-05-18T10:27:50.375Z,0.90
2023-05-18T10:38:20.215Z,1.10
2023-05-18T10:48:49.033Z,0.90
2023-05-18T10:59:15.486Z,1.10
2023-05-18T11:09:45.716Z,0.90
2023-05-18T11:30:52.137Z,0.70
2023-05-18T11:52:03.453Z,0.80
2023-05-18T12:02:35.698Z,0.80
2023-05-18T12:13:02.717Z,1.40
2023-05-18T12:23:42.658Z,0.90
2023-05-18T12:34:08.171Z,0.80
2023-05-18T12:44:36.017Z,0.90
2023-05-18T12:55:05.811Z,1.00
2023-05-18T13:05:31.219Z,0.80
2023-05-18T13:16:00.075Z,0.90
2023-05-18T13:26:27.409Z,1.50
2023-05-18T13:36:52.504Z,0.90
2023-05-18T13:47:18.325Z,1.40
2023-05-18T13:57:46.183Z,1.00
2023-05-18T14:08:11.562Z,1.30
2023-05-18T14:18:37.756Z,0.90
2023-05-18T14:29:06.595Z,0.80
2023-05-18T14:39:32.666Z,1.20
2023-05-18T14:49:58.006Z,0.90
2023-05-18T15:01:04.737Z,0.80
2023-05-18T15:11:49.781Z,1.50
2023-05-18T15:22:16.102Z,1.10
2023-05-18T15:32:46.398Z,0.70
2023-05-18T15:43:11.792Z,1.20
2023-05-18T15:53:36.957Z,0.80
2023-05-18T16:04:02.185Z,1.20
2023-05-18T16:14:26.447Z,0.80
2023-05-18T16:24:51.473Z,1.10
2023-05-18T16:35:16.429Z,1.50
2023-05-18T16:46:21.277Z,1.10
2023-05-18T16:56:46.180Z,1.10
2023-05-18T17:08:11.878Z,0.90
2023-05-18T17:19:41.506Z,1.10
2023-05-18T17:30:10.469Z,1.70
2023-05-18T17:41:12.869Z,2.00
2023-05-18T17:51:38.637Z,4.10
2023-05-18T18:02:05.115Z,6.50
2023-05-18T18:12:35.138Z,12.30
2023-05-18T18:23:02.139Z,8.50
2023-05-18T18:33:27.561Z,3.60
2023-05-18T18:43:55.466Z,4.30
2023-05-18T18:54:20.837Z,3.10
2023-05-18T19:04:54.633Z,1.60
2023-05-18T19:15:21.712Z,1.40
2023-05-18T19:25:46.628Z,1.40
2023-05-18T19:42:49.940Z,1.50
2023-05-18T19:53:15.285Z,1.40
2023-05-18T20:03:43.185Z,1.80
2023-05-18T20:14:08.336Z,1.70
2023-05-18T20:24:33.358Z,1.50
2023-05-18T20:34:58.149Z,2.00
2023-05-18T20:55:49.163Z,1.70
2023-05-18T21:06:14.623Z,1.70
2023-05-18T21:16:41.123Z,1.60
2023-05-18T21:27:07.058Z,1.60
2023-05-18T21:37:35.677Z,2.20
2023-05-18T21:48:01.913Z,2.80
2023-05-18T21:58:27.550Z,3.00
2023-05-18T22:08:52.770Z,2.90
2023-05-18T22:19:17.991Z,2.70
2023-05-18T22:29:42.919Z,2.60
2023-05-18T22:40:10.410Z,3.40
2023-05-18T22:50:36.300Z,2.80
2023-05-18T23:01:01.026Z,2.80
2023-05-18T23:11:25.847Z,2.40
2023-05-18T23:32:16.057Z,2.30
2023-05-18T23:43:33.257Z,2.00
2023-05-18T23:54:35.302Z,2.70
